Wisconsin Dells, WI

12:36 AM CST on Februarie 13, 2016 (GMT -0600)
Parker Lake | | Change Station
CLOSE
Current Station
Personal Weather Stations
Location: Oxford, WI
Elevation: 902 ft
Nearby Weather Stations
Active Advisory: Wind Chill Advisory

Elev 902 ft 43.77 °N, 89.63 °W | Updated 4 minutes ago

Oop
Oop
-3.6 °F
Feels Like -4 °F
N
1.1
Wind Veranderlik Wind from SW

Vandag
High -- | Low -- °F
--% Chance of Precip.
Yesterday
High -- | Low -- °F
Precip. -- in
Druk 30.51 in
Sigbaarheid 10.0 myle
Wolke Oop
Wind afkoel -4 °F
Dou-punt -14 °F
Humiditeit 61%
Rainfall 0.00 in
Snow Depth Not available.
7:01 AM 5:25 PM
Waxing Crescent, 27% visible
METAR KDLL 130615Z AUTO 29003KT 10SM CLR M18/M27 A3051 RMK AO2 T11801269
Druk 30.51 in
Sigbaarheid 10.0 myle
Wolke Oop
Wind afkoel -4 °F
Dou-punt -14 °F
Humiditeit 61%
Rainfall 0.00 in
Snow Depth Not available.
7:01 AM 5:25 PM
Waxing Crescent, 27% visible
METAR KDLL 130615Z AUTO 29003KT 10SM CLR M18/M27 A3051 RMK AO2 T11801269

10-Day Weather Forecast

Almanac

Astronomy

Feb. 13, 2016 Rise Set
Ware Tyd
Civil Twilight
Nautical Twilight
Astronomical Twilight
Maan
Length Of Visible Light
Length of Day
Tomorrow will be .
, % of the Moon is Illuminated

Today's Extremes

State Highs State Lows

Community

WunderPhotos

Upload Photos

1,892,518 photos uploaded!

WunderBlog® & News

Nearby

Air Quality

  Air Quality AQ Index Pollutant
Not available.

Snow Depth

Station Depth Elevation

Earthquake Activity

Stad Distance Mag. Time & Date
Minimum magnitude displayed is 2.5.

Coastal Water Temperatures

Plek Temperatuur

Stations

Nearby Weather Stations

Station Location Temp Wind afkoel Dou-punt Humiditeit Wind Precip. Elev Opdateer Type
                   

Watches & Warnings

Wind Chill Advisory
Issued: 9:19 PM CST Feb. 12, 2016 – National Weather Service

... Wind Chill Advisory remains in effect until 9 am CST
Saturday...

A Wind Chill Advisory remains in effect until 9 am CST Saturday.

* Tonight through early Saturday.

* Wind chill values of 20 to 25 degrees below zero are expected.

Precautionary/preparedness actions...

A Wind Chill Advisory means that very cold air and strong winds
will combine to generate low wind chills. This will result in
frost bite and lead to hypothermia if precautions are not taken.
If you must venture outdoors... make sure you wear a hat and
gloves.



Hentz